TimeCST,TemperatureF,Dew PointF,Humidity,Sea Level PressureIn,VisibilityMPH,Wind Direction,Wind SpeedMPH,Gust SpeedMPH,PrecipitationIn,Events,Conditions,WindDirDegrees,DateUTC
12:53 AM,42.1,27.0,55,30.08,10.0,NW,9.2,-,N/A,,Overcast,320,2013-02-15 06:53:00
1:53 AM,42.1,27.0,55,30.10,10.0,NW,11.5,-,N/A,,Overcast,310,2013-02-15 07:53:00
2:53 AM,39.9,26.1,58,30.10,10.0,NW,12.7,-,N/A,,Overcast,320,2013-02-15 08:53:00
3:53 AM,37.9,25.0,60,30.12,10.0,North,10.4,-,N/A,,Clear,350,2013-02-15 09:53:00
4:53 AM,34.0,26.1,73,30.15,10.0,North,8.1,-,N/A,,Clear,360,2013-02-15 10:53:00
5:53 AM,34.0,25.0,70,30.17,10.0,NNW,11.5,-,N/A,,Scattered Clouds,330,2013-02-15 11:53:00
6:30 AM,33.8,26.6,75,30.19,10.0,WNW,9.2,-,N/A,,Mostly Cloudy,300,2013-02-15 12:30:00
6:53 AM,34.0,25.0,70,30.20,10.0,NW,10.4,-,N/A,,Overcast,310,2013-02-15 12:53:00
7:53 AM,33.1,23.0,66,30.24,10.0,NW,17.3,-,N/A,,Overcast,320,2013-02-15 13:53:00
8:27 AM,32.0,21.2,64,30.25,10.0,NW,17.3,-,N/A,,Scattered Clouds,320,2013-02-15 14:27:00
8:53 AM,33.1,21.9,64,30.27,10.0,NW,17.3,-,N/A,,Overcast,310,2013-02-15 14:53:00
9:53 AM,33.1,18.0,54,30.28,10.0,NNW,16.1,28.8,N/A,,Clear,330,2013-02-15 15:53:00
10:53 AM,34.0,17.1,50,30.29,10.0,NW,17.3,-,N/A,,Clear,310,2013-02-15 16:53:00
11:53 AM,36.0,16.0,44,30.28,10.0,NW,16.1,21.9,N/A,,Clear,310,2013-02-15 17:53:00
12:53 PM,37.0,14.0,39,30.26,10.0,NW,11.5,-,N/A,,Clear,310,2013-02-15 18:53:00
1:53 PM,37.9,15.1,39,30.25,10.0,NNW,8.1,16.1,N/A,,Clear,330,2013-02-15 19:53:00
2:53 PM,37.9,14.0,38,30.25,10.0,NW,13.8,-,N/A,,Clear,310,2013-02-15 20:53:00
3:53 PM,37.9,14.0,38,30.25,10.0,NW,10.4,-,N/A,,Clear,310,2013-02-15 21:53:00
4:53 PM,37.9,12.9,36,30.25,10.0,North,4.6,-,N/A,,Clear,350,2013-02-15 22:53:00
6:53 PM,34.0,14.0,44,30.26,10.0,WNW,10.4,-,N/A,,Clear,300,2013-02-16 00:53:00
7:53 PM,32.0,16.0,52,30.25,10.0,NW,6.9,-,N/A,,Clear,320,2013-02-16 01:53:00
8:53 PM,30.9,16.0,54,30.26,10.0,WNW,5.8,-,N/A,,Clear,300,2013-02-16 02:53:00
9:53 PM,33.1,15.1,48,30.25,10.0,NW,10.4,-,N/A,,Mostly Cloudy,320,2013-02-16 03:53:00
10:53 PM,33.1,15.1,48,30.25,10.0,NNW,10.4,-,N/A,,Overcast,340,2013-02-16 04:53:00
11:53 PM,28.9,14.0,54,30.25,10.0,North,13.8,-,N/A,,Partly Cloudy,360,2013-02-16 05:53:00